sensor_id;sensor_type;location;lat;lon;timestamp;temperature;humidity
75153;HTU21D;63734;45.218;36.708;2023-01-15T00:00:14;1.05;103.63
75153;HTU21D;63734;45.218;36.708;2023-01-15T00:02:40;1.04;103.63
75153;HTU21D;63734;45.218;36.708;2023-01-15T00:05:06;1.05;103.60
75153;HTU21D;63734;45.218;36.708;2023-01-15T00:07:32;1.03;103.60
75153;HTU21D;63734;45.218;36.708;2023-01-15T00:09:58;1.01;103.61
75153;HTU21D;63734;45.218;36.708;2023-01-15T00:12:24;0.98;103.64
75153;HTU21D;63734;45.218;36.708;2023-01-15T00:14:50;0.94;103.66
75153;HTU21D;63734;45.218;36.708;2023-01-15T00:17:16;0.94;103.66
75153;HTU21D;63734;45.218;36.708;2023-01-15T00:19:42;0.93;103.66
75153;HTU21D;63734;45.218;36.708;2023-01-15T00:22:08;0.91;103.60
75153;HTU21D;63734;45.218;36.708;2023-01-15T00:24:34;0.90;103.62
75153;HTU21D;63734;45.218;36.708;2023-01-15T00:27:18;0.89;103.57
75153;HTU21D;63734;45.218;36.708;2023-01-15T00:30:03;0.89;103.50
75153;HTU21D;63734;45.218;36.708;2023-01-15T00:32:29;0.91;103.41
75153;HTU21D;63734;45.218;36.708;2023-01-15T00:34:57;0.89;103.28
75153;HTU21D;63734;45.218;36.708;2023-01-15T00:37:23;0.88;103.31
75153;HTU21D;63734;45.218;36.708;2023-01-15T00:39:49;0.86;103.37
75153;HTU21D;63734;45.218;36.708;2023-01-15T00:42:16;0.84;103.34
75153;HTU21D;63734;45.218;36.708;2023-01-15T00:44:42;0.84;103.31
75153;HTU21D;63734;45.218;36.708;2023-01-15T00:47:09;0.84;103.26
75153;HTU21D;63734;45.218;36.708;2023-01-15T00:49:42;0.83;103.23
75153;HTU21D;63734;45.218;36.708;2023-01-15T00:52:09;0.84;103.15
75153;HTU21D;63734;45.218;36.708;2023-01-15T00:54:35;0.84;103.09
75153;HTU21D;63734;45.218;36.708;2023-01-15T00:57:01;0.82;103.02
75153;HTU21D;63734;45.218;36.708;2023-01-15T00:59:27;0.81;103.11
75153;HTU21D;63734;45.218;36.708;2023-01-15T01:01:53;0.83;103.14
75153;HTU21D;63734;45.218;36.708;2023-01-15T01:04:19;0.83;103.14
75153;HTU21D;63734;45.218;36.708;2023-01-15T01:06:45;0.84;103.15
75153;HTU21D;63734;45.218;36.708;2023-01-15T01:09:15;0.86;103.11
75153;HTU21D;63734;45.218;36.708;2023-01-15T01:11:42;0.88;103.03
75153;HTU21D;63734;45.218;36.708;2023-01-15T01:14:33;0.89;102.96
75153;HTU21D;63734;45.218;36.708;2023-01-15T01:26:03;0.96;102.52
75153;HTU21D;63734;45.218;36.708;2023-01-15T01:28:29;0.96;102.43
75153;HTU21D;63734;45.218;36.708;2023-01-15T01:30:55;0.98;102.46
75153;HTU21D;63734;45.218;36.708;2023-01-15T01:33:21;0.99;102.40
75153;HTU21D;63734;45.218;36.708;2023-01-15T01:35:48;1.02;102.31
75153;HTU21D;63734;45.218;36.708;2023-01-15T01:38:14;1.03;102.31
75153;HTU21D;63734;45.218;36.708;2023-01-15T01:40:41;1.03;102.31
75153;HTU21D;63734;45.218;36.708;2023-01-15T01:43:49;1.04;102.29
75153;HTU21D;63734;45.218;36.708;2023-01-15T01:46:17;1.04;102.16
75153;HTU21D;63734;45.218;36.708;2023-01-15T01:48:44;1.05;102.15
75153;HTU21D;63734;45.218;36.708;2023-01-15T01:51:11;1.01;102.00
75153;HTU21D;63734;45.218;36.708;2023-01-15T01:53:38;0.99;102.10
75153;HTU21D;63734;45.218;36.708;2023-01-15T01:56:07;0.99;102.08
75153;HTU21D;63734;45.218;36.708;2023-01-15T01:58:33;1.01;102.08
75153;HTU21D;63734;45.218;36.708;2023-01-15T02:01:00;0.99;102.01
75153;HTU21D;63734;45.218;36.708;2023-01-15T02:03:33;1.03;102.05
75153;HTU21D;63734;45.218;36.708;2023-01-15T02:06:03;1.03;102.03
75153;HTU21D;63734;45.218;36.708;2023-01-15T02:08:31;1.04;102.03
75153;HTU21D;63734;45.218;36.708;2023-01-15T02:10:57;1.06;101.99
75153;HTU21D;63734;45.218;36.708;2023-01-15T02:22:35;0.78;102.06
75153;HTU21D;63734;45.218;36.708;2023-01-15T02:25:31;0.78;102.19
75153;HTU21D;63734;45.218;36.708;2023-01-15T02:28:15;0.81;102.09
75153;HTU21D;63734;45.218;36.708;2023-01-15T02:30:52;0.81;102.02
75153;HTU21D;63734;45.218;36.708;2023-01-15T02:33:35;0.76;101.95
75153;HTU21D;63734;45.218;36.708;2023-01-15T02:36:06;0.66;102.02
75153;HTU21D;63734;45.218;36.708;2023-01-15T02:38:40;0.62;102.19
75153;HTU21D;63734;45.218;36.708;2023-01-15T02:41:10;0.66;102.26
75153;HTU21D;63734;45.218;36.708;2023-01-15T02:43:46;0.71;102.08
75153;HTU21D;63734;45.218;36.708;2023-01-15T02:46:15;0.68;102.03
75153;HTU21D;63734;45.218;36.708;2023-01-15T02:49:08;0.66;102.02
75153;HTU21D;63734;45.218;36.708;2023-01-15T02:51:43;0.66;102.03
75153;HTU21D;63734;45.218;36.708;2023-01-15T02:54:14;0.64;101.99
75153;HTU21D;63734;45.218;36.708;2023-01-15T02:56:44;0.62;102.06
75153;HTU21D;63734;45.218;36.708;2023-01-15T02:59:19;0.62;101.99
75153;HTU21D;63734;45.218;36.708;2023-01-15T03:01:52;0.65;102.10
75153;HTU21D;63734;45.218;36.708;2023-01-15T03:04:31;0.66;101.93
75153;HTU21D;63734;45.218;36.708;2023-01-15T03:07:08;0.68;101.91
75153;HTU21D;63734;45.218;36.708;2023-01-15T03:09:38;0.67;101.81
75153;HTU21D;63734;45.218;36.708;2023-01-15T03:14:48;0.62;101.73
75153;HTU21D;63734;45.218;36.708;2023-01-15T03:17:23;0.58;101.78
75153;HTU21D;63734;45.218;36.708;2023-01-15T03:19:57;0.59;101.84
75153;HTU21D;63734;45.218;36.708;2023-01-15T03:25:03;0.55;101.87
75153;HTU21D;63734;45.218;36.708;2023-01-15T03:27:38;0.61;101.98
75153;HTU21D;63734;45.218;36.708;2023-01-15T03:30:13;0.68;101.80
75153;HTU21D;63734;45.218;36.708;2023-01-15T03:32:40;0.73;101.70
75153;HTU21D;63734;45.218;36.708;2023-01-15T03:35:07;0.77;101.59
75153;HTU21D;63734;45.218;36.708;2023-01-15T03:37:42;0.75;101.57
75153;HTU21D;63734;45.218;36.708;2023-01-15T03:40:09;0.76;101.48
75153;HTU21D;63734;45.218;36.708;2023-01-15T03:45:26;0.75;101.49
75153;HTU21D;63734;45.218;36.708;2023-01-15T03:53:45;0.79;101.42
75153;HTU21D;63734;45.218;36.708;2023-01-15T03:57:05;0.79;101.35
75153;HTU21D;63734;45.218;36.708;2023-01-15T03:59:10;0.83;101.37
75153;HTU21D;63734;45.218;36.708;2023-01-15T04:02:06;0.87;101.28
75153;HTU21D;63734;45.218;36.708;2023-01-15T04:04:33;0.89;101.21
75153;HTU21D;63734;45.218;36.708;2023-01-15T04:07:02;0.91;101.16
75153;HTU21D;63734;45.218;36.708;2023-01-15T04:09:30;0.98;101.19
75153;HTU21D;63734;45.218;36.708;2023-01-15T04:11:59;1.06;101.07
75153;HTU21D;63734;45.218;36.708;2023-01-15T04:14:28;1.14;100.93
75153;HTU21D;63734;45.218;36.708;2023-01-15T04:16:56;1.23;100.73
75153;HTU21D;63734;45.218;36.708;2023-01-15T04:19:23;1.26;100.75
75153;HTU21D;63734;45.218;36.708;2023-01-15T04:22:02;1.26;100.53
75153;HTU21D;63734;45.218;36.708;2023-01-15T04:24:28;1.27;100.57
75153;HTU21D;63734;45.218;36.708;2023-01-15T04:26:54;1.25;100.54
75153;HTU21D;63734;45.218;36.708;2023-01-15T04:29:20;1.22;100.67
75153;HTU21D;63734;45.218;36.708;2023-01-15T04:31:46;1.31;100.74
75153;HTU21D;63734;45.218;36.708;2023-01-15T04:34:12;1.36;100.64
75153;HTU21D;63734;45.218;36.708;2023-01-15T04:36:38;1.39;100.52
75153;HTU21D;63734;45.218;36.708;2023-01-15T04:39:04;1.41;100.44
75153;HTU21D;63734;45.218;36.708;2023-01-15T04:41:30;1.48;100.41
75153;HTU21D;63734;45.218;36.708;2023-01-15T04:44:15;1.46;100.35
75153;HTU21D;63734;45.218;36.708;2023-01-15T04:46:45;1.45;100.34
75153;HTU21D;63734;45.218;36.708;2023-01-15T04:49:13;1.43;100.35
75153;HTU21D;63734;45.218;36.708;2023-01-15T04:51:40;1.45;100.48
75153;HTU21D;63734;45.218;36.708;2023-01-15T04:54:07;1.48;100.41
75153;HTU21D;63734;45.218;36.708;2023-01-15T04:56:43;1.47;100.38
75153;HTU21D;63734;45.218;36.708;2023-01-15T04:59:10;1.49;100.32
75153;HTU21D;63734;45.218;36.708;2023-01-15T05:01:36;1.49;100.26
75153;HTU21D;63734;45.218;36.708;2023-01-15T05:04:02;1.51;100.22
75153;HTU21D;63734;45.218;36.708;2023-01-15T05:06:29;1.48;100.23
75153;HTU21D;63734;45.218;36.708;2023-01-15T05:08:56;1.51;100.38
75153;HTU21D;63734;45.218;36.708;2023-01-15T05:11:23;1.54;100.22
75153;HTU21D;63734;45.218;36.708;2023-01-15T05:13:49;1.54;100.23
75153;HTU21D;63734;45.218;36.708;2023-01-15T05:16:16;1.57;100.18
75153;HTU21D;63734;45.218;36.708;2023-01-15T05:18:43;1.60;100.03
75153;HTU21D;63734;45.218;36.708;2023-01-15T05:21:23;1.60;99.93
75153;HTU21D;63734;45.218;36.708;2023-01-15T05:23:51;1.51;99.92
75153;HTU21D;63734;45.218;36.708;2023-01-15T05:26:18;1.52;100.04
75153;HTU21D;63734;45.218;36.708;2023-01-15T05:28:46;1.51;100.00
75153;HTU21D;63734;45.218;36.708;2023-01-15T05:31:14;1.50;100.07
75153;HTU21D;63734;45.218;36.708;2023-01-15T05:33:40;1.49;100.11
75153;HTU21D;63734;45.218;36.708;2023-01-15T05:36:09;1.49;100.06
75153;HTU21D;63734;45.218;36.708;2023-01-15T05:38:35;1.50;100.08
75153;HTU21D;63734;45.218;36.708;2023-01-15T05:41:05;1.50;100.07
75153;HTU21D;63734;45.218;36.708;2023-01-15T05:43:50;1.53;100.07
75153;HTU21D;63734;45.218;36.708;2023-01-15T05:46:17;1.55;100.03
75153;HTU21D;63734;45.218;36.708;2023-01-15T05:48:42;1.58;99.96
75153;HTU21D;63734;45.218;36.708;2023-01-15T05:51:08;1.61;99.95
75153;HTU21D;63734;45.218;36.708;2023-01-15T05:53:34;1.63;99.86
75153;HTU21D;63734;45.218;36.708;2023-01-15T05:56:01;1.66;99.90
75153;HTU21D;63734;45.218;36.708;2023-01-15T05:58:27;1.69;99.80
75153;HTU21D;63734;45.218;36.708;2023-01-15T06:00:53;1.72;99.75
75153;HTU21D;63734;45.218;36.708;2023-01-15T06:03:23;1.77;99.70
75153;HTU21D;63734;45.218;36.708;2023-01-15T06:05:50;1.82;99.61
75153;HTU21D;63734;45.218;36.708;2023-01-15T06:08:16;1.86;99.51
75153;HTU21D;63734;45.218;36.708;2023-01-15T06:10:46;1.88;99.45
75153;HTU21D;63734;45.218;36.708;2023-01-15T06:13:13;1.93;99.41
75153;HTU21D;63734;45.218;36.708;2023-01-15T06:15:39;1.96;99.26
75153;HTU21D;63734;45.218;36.708;2023-01-15T06:18:05;1.99;99.22
75153;HTU21D;63734;45.218;36.708;2023-01-15T06:20:34;2.01;99.18
75153;HTU21D;63734;45.218;36.708;2023-01-15T06:23:02;2.08;99.13
75153;HTU21D;63734;45.218;36.708;2023-01-15T06:25:28;2.13;98.99
75153;HTU21D;63734;45.218;36.708;2023-01-15T06:27:54;2.16;98.93
75153;HTU21D;63734;45.218;36.708;2023-01-15T06:30:20;2.21;98.80
75153;HTU21D;63734;45.218;36.708;2023-01-15T06:32:46;2.21;98.74
75153;HTU21D;63734;45.218;36.708;2023-01-15T06:35:12;2.23;98.72
75153;HTU21D;63734;45.218;36.708;2023-01-15T06:37:39;2.26;98.61
75153;HTU21D;63734;45.218;36.708;2023-01-15T06:40:05;2.27;98.57
75153;HTU21D;63734;45.218;36.708;2023-01-15T06:42:31;2.30;98.52
75153;HTU21D;63734;45.218;36.708;2023-01-15T06:45:15;2.34;98.39
75153;HTU21D;63734;45.218;36.708;2023-01-15T06:47:59;2.37;98.29
75153;HTU21D;63734;45.218;36.708;2023-01-15T06:50:26;2.35;98.16
75153;HTU21D;63734;45.218;36.708;2023-01-15T06:52:51;2.31;98.19
75153;HTU21D;63734;45.218;36.708;2023-01-15T06:55:17;2.31;98.23
75153;HTU21D;63734;45.218;36.708;2023-01-15T06:57:44;2.35;98.19
75153;HTU21D;63734;45.218;36.708;2023-01-15T07:00:11;2.39;98.10
75153;HTU21D;63734;45.218;36.708;2023-01-15T07:02:37;2.40;98.00
75153;HTU21D;63734;45.218;36.708;2023-01-15T07:05:06;2.42;97.95
75153;HTU21D;63734;45.218;36.708;2023-01-15T07:07:32;2.41;97.94
75153;HTU21D;63734;45.218;36.708;2023-01-15T07:09:58;2.41;97.84
75153;HTU21D;63734;45.218;36.708;2023-01-15T07:12:25;2.38;97.78
75153;HTU21D;63734;45.218;36.708;2023-01-15T07:14:51;2.34;97.77
75153;HTU21D;63734;45.218;36.708;2023-01-15T07:17:17;2.31;97.77
75153;HTU21D;63734;45.218;36.708;2023-01-15T07:19:43;2.32;97.74
75153;HTU21D;63734;45.218;36.708;2023-01-15T07:22:10;2.31;97.62
75153;HTU21D;63734;45.218;36.708;2023-01-15T07:24:36;2.30;97.66
75153;HTU21D;63734;45.218;36.708;2023-01-15T07:27:03;2.30;97.57
75153;HTU21D;63734;45.218;36.708;2023-01-15T07:29:29;2.30;97.55
75153;HTU21D;63734;45.218;36.708;2023-01-15T07:31:55;2.30;97.48
75153;HTU21D;63734;45.218;36.708;2023-01-15T07:34:21;2.31;97.49
75153;HTU21D;63734;45.218;36.708;2023-01-15T07:36:47;2.31;97.29
75153;HTU21D;63734;45.218;36.708;2023-01-15T07:39:14;2.27;97.20
75153;HTU21D;63734;45.218;36.708;2023-01-15T07:41:40;2.26;97.16
75153;HTU21D;63734;45.218;36.708;2023-01-15T07:44:24;2.26;97.08
75153;HTU21D;63734;45.218;36.708;2023-01-15T07:47:18;2.24;96.97
75153;HTU21D;63734;45.218;36.708;2023-01-15T07:50:06;2.24;97.07
75153;HTU21D;63734;45.218;36.708;2023-01-15T07:52:32;2.28;97.03
75153;HTU21D;63734;45.218;36.708;2023-01-15T07:54:58;2.24;96.75
75153;HTU21D;63734;45.218;36.708;2023-01-15T07:57:26;2.19;96.71
75153;HTU21D;63734;45.218;36.708;2023-01-15T07:59:52;2.14;96.83
75153;HTU21D;63734;45.218;36.708;2023-01-15T08:02:18;2.14;96.91
75153;HTU21D;63734;45.218;36.708;2023-01-15T08:04:44;2.13;96.87
75153;HTU21D;63734;45.218;36.708;2023-01-15T08:07:10;2.13;97.00
75153;HTU21D;63734;45.218;36.708;2023-01-15T08:09:37;2.19;97.11
75153;HTU21D;63734;45.218;36.708;2023-01-15T08:12:03;2.25;96.97
75153;HTU21D;63734;45.218;36.708;2023-01-15T08:14:48;2.28;96.91
75153;HTU21D;63734;45.218;36.708;2023-01-15T08:17:36;2.34;96.85
75153;HTU21D;63734;45.218;36.708;2023-01-15T08:20:04;2.38;96.83
75153;HTU21D;63734;45.218;36.708;2023-01-15T08:22:31;2.44;96.66
75153;HTU21D;63734;45.218;36.708;2023-01-15T08:24:57;2.44;96.52
75153;HTU21D;63734;45.218;36.708;2023-01-15T08:27:23;2.42;96.52
75153;HTU21D;63734;45.218;36.708;2023-01-15T08:29:49;2.43;96.47
75153;HTU21D;63734;45.218;36.708;2023-01-15T08:32:15;2.44;96.36
75153;HTU21D;63734;45.218;36.708;2023-01-15T08:34:42;2.47;96.42
75153;HTU21D;63734;45.218;36.708;2023-01-15T08:37:08;2.51;96.20
75153;HTU21D;63734;45.218;36.708;2023-01-15T08:39:34;2.50;96.10
75153;HTU21D;63734;45.218;36.708;2023-01-15T08:42:00;2.52;96.10
75153;HTU21D;63734;45.218;36.708;2023-01-15T08:44:27;2.56;96.12
75153;HTU21D;63734;45.218;36.708;2023-01-15T08:46:53;2.59;95.96
75153;HTU21D;63734;45.218;36.708;2023-01-15T08:49:20;2.61;95.92
75153;HTU21D;63734;45.218;36.708;2023-01-15T08:51:46;2.66;95.86
75153;HTU21D;63734;45.218;36.708;2023-01-15T08:54:18;2.70;95.71
75153;HTU21D;63734;45.218;36.708;2023-01-15T08:56:45;2.68;95.51
75153;HTU21D;63734;45.218;36.708;2023-01-15T08:59:11;2.71;95.53
75153;HTU21D;63734;45.218;36.708;2023-01-15T09:01:37;2.68;95.02
75153;HTU21D;63734;45.218;36.708;2023-01-15T09:04:03;2.62;94.92
75153;HTU21D;63734;45.218;36.708;2023-01-15T09:06:31;2.64;95.01
75153;HTU21D;63734;45.218;36.708;2023-01-15T09:08:58;2.57;94.80
75153;HTU21D;63734;45.218;36.708;2023-01-15T09:11:25;2.58;94.90
75153;HTU21D;63734;45.218;36.708;2023-01-15T09:13:51;2.61;94.75
75153;HTU21D;63734;45.218;36.708;2023-01-15T09:16:18;2.56;94.57
75153;HTU21D;63734;45.218;36.708;2023-01-15T09:18:45;2.57;94.74
75153;HTU21D;63734;45.218;36.708;2023-01-15T09:21:11;2.60;94.71
75153;HTU21D;63734;45.218;36.708;2023-01-15T09:23:37;2.64;94.53
75153;HTU21D;63734;45.218;36.708;2023-01-15T09:26:05;2.67;94.20
75153;HTU21D;63734;45.218;36.708;2023-01-15T09:28:32;2.65;94.07
75153;HTU21D;63734;45.218;36.708;2023-01-15T09:30:59;2.67;94.03
75153;HTU21D;63734;45.218;36.708;2023-01-15T09:33:25;2.66;93.98
75153;HTU21D;63734;45.218;36.708;2023-01-15T09:35:52;2.64;93.84
75153;HTU21D;63734;45.218;36.708;2023-01-15T09:38:19;2.64;93.62
75153;HTU21D;63734;45.218;36.708;2023-01-15T09:40:50;2.60;93.56
75153;HTU21D;63734;45.218;36.708;2023-01-15T09:43:35;2.62;93.62
75153;HTU21D;63734;45.218;36.708;2023-01-15T09:46:16;2.66;93.61
75153;HTU21D;63734;45.218;36.708;2023-01-15T09:56:38;2.65;92.96
75153;HTU21D;63734;45.218;36.708;2023-01-15T09:59:13;2.64;93.02
75153;HTU21D;63734;45.218;36.708;2023-01-15T10:01:43;2.65;93.22
75153;HTU21D;63734;45.218;36.708;2023-01-15T10:04:33;2.68;92.93
75153;HTU21D;63734;45.218;36.708;2023-01-15T10:10:09;2.59;92.18
75153;HTU21D;63734;45.218;36.708;2023-01-15T10:12:37;2.54;92.38
75153;HTU21D;63734;45.218;36.708;2023-01-15T10:17:49;2.43;92.05
75153;HTU21D;63734;45.218;36.708;2023-01-15T10:29:03;2.44;92.55
75153;HTU21D;63734;45.218;36.708;2023-01-15T10:39:46;2.45;92.44
75153;HTU21D;63734;45.218;36.708;2023-01-15T10:45:22;2.61;92.27
75153;HTU21D;63734;45.218;36.708;2023-01-15T10:50:51;2.58;92.01
75153;HTU21D;63734;45.218;36.708;2023-01-15T10:53:44;2.55;91.89
75153;HTU21D;63734;45.218;36.708;2023-01-15T10:59:45;2.37;91.55
75153;HTU21D;63734;45.218;36.708;2023-01-15T11:04:51;2.23;91.40
75153;HTU21D;63734;45.218;36.708;2023-01-15T11:07:19;2.19;91.19
75153;HTU21D;63734;45.218;36.708;2023-01-15T11:09:46;2.20;91.43
75153;HTU21D;63734;45.218;36.708;2023-01-15T11:12:27;2.21;91.28
75153;HTU21D;63734;45.218;36.708;2023-01-15T11:15:14;2.24;91.27
75153;HTU21D;63734;45.218;36.708;2023-01-15T11:18:00;2.25;91.27
75153;HTU21D;63734;45.218;36.708;2023-01-15T11:20:46;2.27;91.10
75153;HTU21D;63734;45.218;36.708;2023-01-15T11:23:17;2.30;91.21
75153;HTU21D;63734;45.218;36.708;2023-01-15T11:25:52;2.31;91.15
75153;HTU21D;63734;45.218;36.708;2023-01-15T11:28:30;2.35;91.17
75153;HTU21D;63734;45.218;36.708;2023-01-15T11:30:58;2.34;90.95
75153;HTU21D;63734;45.218;36.708;2023-01-15T11:33:26;2.30;90.91
75153;HTU21D;63734;45.218;36.708;2023-01-15T11:35:55;2.31;90.98
75153;HTU21D;63734;45.218;36.708;2023-01-15T11:38:29;2.32;91.02
75153;HTU21D;63734;45.218;36.708;2023-01-15T11:40:58;2.31;90.95
75153;HTU21D;63734;45.218;36.708;2023-01-15T11:43:29;2.30;90.84
75153;HTU21D;63734;45.218;36.708;2023-01-15T11:46:29;2.29;90.88
75153;HTU21D;63734;45.218;36.708;2023-01-15T11:49:19;2.28;90.90
75153;HTU21D;63734;45.218;36.708;2023-01-15T11:52:07;2.27;90.89
75153;HTU21D;63734;45.218;36.708;2023-01-15T11:54:40;2.28;90.85
75153;HTU21D;63734;45.218;36.708;2023-01-15T11:57:07;2.27;90.84
75153;HTU21D;63734;45.218;36.708;2023-01-15T11:59:35;2.28;90.69
75153;HTU21D;63734;45.218;36.708;2023-01-15T12:02:14;2.24;90.53
75153;HTU21D;63734;45.218;36.708;2023-01-15T12:04:49;2.20;90.64
75153;HTU21D;63734;45.218;36.708;2023-01-15T12:07:19;2.21;90.75
75153;HTU21D;63734;45.218;36.708;2023-01-15T12:10:20;2.23;90.70
75153;HTU21D;63734;45.218;36.708;2023-01-15T12:16:36;2.28;90.57
75153;HTU21D;63734;45.218;36.708;2023-01-15T12:25:06;2.25;90.52
75153;HTU21D;63734;45.218;36.708;2023-01-15T12:27:51;2.27;90.55
75153;HTU21D;63734;45.218;36.708;2023-01-15T12:33:14;2.31;90.57
75153;HTU21D;63734;45.218;36.708;2023-01-15T12:35:48;2.30;90.34
75153;HTU21D;63734;45.218;36.708;2023-01-15T12:41:29;2.34;90.33
75153;HTU21D;63734;45.218;36.708;2023-01-15T12:44:31;2.36;90.32
75153;HTU21D;63734;45.218;36.708;2023-01-15T12:47:21;2.38;90.30
75153;HTU21D;63734;45.218;36.708;2023-01-15T12:49:58;2.38;90.28
75153;HTU21D;63734;45.218;36.708;2023-01-15T12:52:32;2.39;90.30
75153;HTU21D;63734;45.218;36.708;2023-01-15T12:55:13;2.40;90.27
75153;HTU21D;63734;45.218;36.708;2023-01-15T12:57:46;2.44;90.21
75153;HTU21D;63734;45.218;36.708;2023-01-15T13:00:28;2.47;90.18
75153;HTU21D;63734;45.218;36.708;2023-01-15T13:03:23;2.47;90.11
75153;HTU21D;63734;45.218;36.708;2023-01-15T13:05:55;2.43;90.18
75153;HTU21D;63734;45.218;36.708;2023-01-15T13:08:48;2.44;90.21
75153;HTU21D;63734;45.218;36.708;2023-01-15T13:11:15;2.45;90.15
75153;HTU21D;63734;45.218;36.708;2023-01-15T13:13:42;2.45;90.12
75153;HTU21D;63734;45.218;36.708;2023-01-15T13:19:17;2.40;90.02
75153;HTU21D;63734;45.218;36.708;2023-01-15T13:21:47;2.39;90.09
75153;HTU21D;63734;45.218;36.708;2023-01-15T13:33:29;2.39;89.95
75153;HTU21D;63734;45.218;36.708;2023-01-15T13:36:10;2.37;89.98
75153;HTU21D;63734;45.218;36.708;2023-01-15T13:38:48;2.34;90.03
75153;HTU21D;63734;45.218;36.708;2023-01-15T13:41:28;2.32;89.87
75153;HTU21D;63734;45.218;36.708;2023-01-15T13:44:32;2.28;89.91
75153;HTU21D;63734;45.218;36.708;2023-01-15T13:47:07;2.30;89.86
75153;HTU21D;63734;45.218;36.708;2023-01-15T13:49:39;2.26;89.67
75153;HTU21D;63734;45.218;36.708;2023-01-15T13:52:25;2.23;89.54
75153;HTU21D;63734;45.218;36.708;2023-01-15T13:54:53;2.20;89.54
75153;HTU21D;63734;45.218;36.708;2023-01-15T13:59:49;2.20;89.28
75153;HTU21D;63734;45.218;36.708;2023-01-15T14:02:49;2.14;89.27
75153;HTU21D;63734;45.218;36.708;2023-01-15T14:07:48;2.06;89.06
75153;HTU21D;63734;45.218;36.708;2023-01-15T14:12:55;2.01;89.25
75153;HTU21D;63734;45.218;36.708;2023-01-15T14:15:29;2.01;89.06
75153;HTU21D;63734;45.218;36.708;2023-01-15T14:32:49;2.08;88.80
75153;HTU21D;63734;45.218;36.708;2023-01-15T14:35:21;2.10;88.77
75153;HTU21D;63734;45.218;36.708;2023-01-15T14:37:54;2.09;88.74
75153;HTU21D;63734;45.218;36.708;2023-01-15T14:40:22;2.12;88.63
75153;HTU21D;63734;45.218;36.708;2023-01-15T14:42:51;2.14;88.57
75153;HTU21D;63734;45.218;36.708;2023-01-15T14:45:33;2.16;88.36
75153;HTU21D;63734;45.218;36.708;2023-01-15T14:48:49;2.16;88.28
75153;HTU21D;63734;45.218;36.708;2023-01-15T14:50:50;2.12;88.10
75153;HTU21D;63734;45.218;36.708;2023-01-15T14:56:28;2.07;87.97
75153;HTU21D;63734;45.218;36.708;2023-01-15T15:01:50;1.97;87.70
75153;HTU21D;63734;45.218;36.708;2023-01-15T15:04:31;1.96;87.61
75153;HTU21D;63734;45.218;36.708;2023-01-15T15:09:34;1.93;87.38
75153;HTU21D;63734;45.218;36.708;2023-01-15T15:14:57;1.88;87.39
75153;HTU21D;63734;45.218;36.708;2023-01-15T15:17:38;1.86;86.87
75153;HTU21D;63734;45.218;36.708;2023-01-15T15:20:20;1.81;86.25
75153;HTU21D;63734;45.218;36.708;2023-01-15T15:22:52;1.78;86.18
75153;HTU21D;63734;45.218;36.708;2023-01-15T15:25:28;1.75;86.05
75153;HTU21D;63734;45.218;36.708;2023-01-15T15:28:03;1.72;85.79
75153;HTU21D;63734;45.218;36.708;2023-01-15T15:30:33;1.70;85.90
75153;HTU21D;63734;45.218;36.708;2023-01-15T15:33:03;1.71;86.04
75153;HTU21D;63734;45.218;36.708;2023-01-15T15:35:31;1.71;86.17
75153;HTU21D;63734;45.218;36.708;2023-01-15T15:38:02;1.77;86.51
75153;HTU21D;63734;45.218;36.708;2023-01-15T15:40:34;1.79;86.61
75153;HTU21D;63734;45.218;36.708;2023-01-15T15:43:19;1.83;86.74
75153;HTU21D;63734;45.218;36.708;2023-01-15T15:46:30;1.90;86.77
75153;HTU21D;63734;45.218;36.708;2023-01-15T15:49:16;1.93;86.79
75153;HTU21D;63734;45.218;36.708;2023-01-15T15:51:49;1.92;86.81
75153;HTU21D;63734;45.218;36.708;2023-01-15T15:54:20;1.95;86.83
75153;HTU21D;63734;45.218;36.708;2023-01-15T15:57:01;1.94;86.84
75153;HTU21D;63734;45.218;36.708;2023-01-15T15:59:37;1.92;86.98
75153;HTU21D;63734;45.218;36.708;2023-01-15T16:02:23;1.92;87.08
75153;HTU21D;63734;45.218;36.708;2023-01-15T16:04:55;1.91;87.07
75153;HTU21D;63734;45.218;36.708;2023-01-15T16:07:32;1.90;87.21
75153;HTU21D;63734;45.218;36.708;2023-01-15T16:10:28;1.85;87.23
75153;HTU21D;63734;45.218;36.708;2023-01-15T16:12:57;1.82;87.21
75153;HTU21D;63734;45.218;36.708;2023-01-15T16:15:39;1.81;87.38
75153;HTU21D;63734;45.218;36.708;2023-01-15T16:18:17;1.81;87.35
75153;HTU21D;63734;45.218;36.708;2023-01-15T16:20:45;1.82;87.36
75153;HTU21D;63734;45.218;36.708;2023-01-15T16:23:23;1.82;87.28
75153;HTU21D;63734;45.218;36.708;2023-01-15T16:26:04;1.81;87.19
75153;HTU21D;63734;45.218;36.708;2023-01-15T16:28:40;1.83;87.32
75153;HTU21D;63734;45.218;36.708;2023-01-15T16:31:09;1.85;87.32
75153;HTU21D;63734;45.218;36.708;2023-01-15T16:33:37;1.87;87.26
75153;HTU21D;63734;45.218;36.708;2023-01-15T16:36:05;1.88;87.15
75153;HTU21D;63734;45.218;36.708;2023-01-15T16:38:39;1.87;87.12
75153;HTU21D;63734;45.218;36.708;2023-01-15T16:41:06;1.90;87.15
75153;HTU21D;63734;45.218;36.708;2023-01-15T16:43:57;1.90;87.10
75153;HTU21D;63734;45.218;36.708;2023-01-15T16:46:29;1.88;87.12
75153;HTU21D;63734;45.218;36.708;2023-01-15T16:49:26;1.87;87.10
75153;HTU21D;63734;45.218;36.708;2023-01-15T16:51:53;1.91;87.10
75153;HTU21D;63734;45.218;36.708;2023-01-15T17:02:13;1.96;86.93
75153;HTU21D;63734;45.218;36.708;2023-01-15T17:04:43;1.96;86.90
75153;HTU21D;63734;45.218;36.708;2023-01-15T17:07:34;1.93;86.96
75153;HTU21D;63734;45.218;36.708;2023-01-15T17:10:03;1.95;86.92
75153;HTU21D;63734;45.218;36.708;2023-01-15T17:12:33;1.94;86.93
75153;HTU21D;63734;45.218;36.708;2023-01-15T17:17:42;1.92;86.82
75153;HTU21D;63734;45.218;36.708;2023-01-15T17:20:10;1.91;86.64
75153;HTU21D;63734;45.218;36.708;2023-01-15T17:22:39;1.83;86.35
75153;HTU21D;63734;45.218;36.708;2023-01-15T17:25:28;1.79;86.64
75153;HTU21D;63734;45.218;36.708;2023-01-15T17:27:56;1.81;86.76
75153;HTU21D;63734;45.218;36.708;2023-01-15T17:30:24;1.81;86.77
75153;HTU21D;63734;45.218;36.708;2023-01-15T17:33:00;1.79;86.92
75153;HTU21D;63734;45.218;36.708;2023-01-15T17:35:37;1.83;86.90
75153;HTU21D;63734;45.218;36.708;2023-01-15T17:38:04;1.85;86.80
75153;HTU21D;63734;45.218;36.708;2023-01-15T17:40:32;1.80;86.81
75153;HTU21D;63734;45.218;36.708;2023-01-15T17:42:58;1.79;86.99
75153;HTU21D;63734;45.218;36.708;2023-01-15T17:45:26;1.79;87.02
75153;HTU21D;63734;45.218;36.708;2023-01-15T17:47:53;1.79;86.95
75153;HTU21D;63734;45.218;36.708;2023-01-15T17:50:19;1.79;86.99
75153;HTU21D;63734;45.218;36.708;2023-01-15T17:52:46;1.82;86.98
75153;HTU21D;63734;45.218;36.708;2023-01-15T17:55:15;1.78;87.00
75153;HTU21D;63734;45.218;36.708;2023-01-15T17:58:00;1.78;87.12
75153;HTU21D;63734;45.218;36.708;2023-01-15T18:00:45;1.82;86.99
75153;HTU21D;63734;45.218;36.708;2023-01-15T18:03:30;1.79;86.99
75153;HTU21D;63734;45.218;36.708;2023-01-15T18:06:16;1.81;87.03